sensor_id;sensor_type;location;lat;lon;timestamp;pressure;altitude;pressure_sealevel;temperature;humidity
53116;BME280;39010;48.088;7.954;2022-07-24T00:01:08;99017.88;;;20.00;78.35
53116;BME280;39010;48.088;7.954;2022-07-24T00:03:34;99017.28;;;19.98;78.18
53116;BME280;39010;48.088;7.954;2022-07-24T00:06:01;99017.41;;;19.91;78.63
53116;BME280;39010;48.088;7.954;2022-07-24T00:08:28;99017.47;;;19.84;79.07
53116;BME280;39010;48.088;7.954;2022-07-24T00:10:54;99014.41;;;19.81;78.82
53116;BME280;39010;48.088;7.954;2022-07-24T00:13:21;99019.72;;;19.76;79.66
53116;BME280;39010;48.088;7.954;2022-07-24T00:15:48;99018.19;;;19.80;79.29
53116;BME280;39010;48.088;7.954;2022-07-24T00:18:14;99010.81;;;19.68;80.45
53116;BME280;39010;48.088;7.954;2022-07-24T00:20:41;99014.22;;;19.64;80.33
53116;BME280;39010;48.088;7.954;2022-07-24T00:23:08;99015.28;;;19.63;80.50
53116;BME280;39010;48.088;7.954;2022-07-24T00:25:35;99012.34;;;19.64;79.95
53116;BME280;39010;48.088;7.954;2022-07-24T00:28:01;99013.41;;;19.63;79.93
53116;BME280;39010;48.088;7.954;2022-07-24T00:30:34;99010.69;;;19.63;80.21
53116;BME280;39010;48.088;7.954;2022-07-24T00:33:00;99011.34;;;19.47;80.58
53116;BME280;39010;48.088;7.954;2022-07-24T00:35:27;99008.38;;;19.48;81.19
53116;BME280;39010;48.088;7.954;2022-07-24T00:37:53;99010.28;;;19.48;81.00
53116;BME280;39010;48.088;7.954;2022-07-24T00:40:20;99007.66;;;19.41;81.00
53116;BME280;39010;48.088;7.954;2022-07-24T00:42:46;99012.03;;;19.42;81.20
53116;BME280;39010;48.088;7.954;2022-07-24T00:45:13;99015.09;;;19.34;81.75
53116;BME280;39010;48.088;7.954;2022-07-24T00:47:52;99011.19;;;19.41;82.33
53116;BME280;39010;48.088;7.954;2022-07-24T00:50:24;99005.56;;;19.55;81.51
53116;BME280;39010;48.088;7.954;2022-07-24T00:52:52;99011.63;;;19.69;81.86
53116;BME280;39010;48.088;7.954;2022-07-24T00:55:19;99007.72;;;19.65;80.97
53116;BME280;39010;48.088;7.954;2022-07-24T00:57:46;99019.06;;;19.62;80.13
53116;BME280;39010;48.088;7.954;2022-07-24T01:00:16;99015.53;;;19.61;80.46
53116;BME280;39010;48.088;7.954;2022-07-24T01:02:43;99014.19;;;19.52;80.93
53116;BME280;39010;48.088;7.954;2022-07-24T01:05:10;98999.41;;;19.60;80.59
53116;BME280;39010;48.088;7.954;2022-07-24T01:07:36;99001.06;;;19.61;79.85
53116;BME280;39010;48.088;7.954;2022-07-24T01:10:04;99004.03;;;19.59;79.89
53116;BME280;39010;48.088;7.954;2022-07-24T01:12:32;99005.19;;;19.51;80.27
53116;BME280;39010;48.088;7.954;2022-07-24T01:14:59;99003.31;;;19.52;81.25
53116;BME280;39010;48.088;7.954;2022-07-24T01:17:30;99005.88;;;19.47;81.18
53116;BME280;39010;48.088;7.954;2022-07-24T01:19:58;99003.75;;;19.37;81.63
53116;BME280;39010;48.088;7.954;2022-07-24T01:22:26;99008.00;;;19.45;80.99
53116;BME280;39010;48.088;7.954;2022-07-24T01:24:55;99009.06;;;19.43;80.88
53116;BME280;39010;48.088;7.954;2022-07-24T01:27:22;99007.38;;;19.31;81.07
53116;BME280;39010;48.088;7.954;2022-07-24T01:29:53;99010.78;;;19.26;81.94
53116;BME280;39010;48.088;7.954;2022-07-24T01:32:19;98999.88;;;19.26;82.07
53116;BME280;39010;48.088;7.954;2022-07-24T01:34:46;98999.81;;;19.33;81.27
53116;BME280;39010;48.088;7.954;2022-07-24T01:37:13;99003.53;;;19.20;82.26
53116;BME280;39010;48.088;7.954;2022-07-24T01:39:39;99003.69;;;19.25;81.67
53116;BME280;39010;48.088;7.954;2022-07-24T01:42:06;98991.97;;;19.24;81.81
53116;BME280;39010;48.088;7.954;2022-07-24T01:44:32;98990.53;;;19.22;81.78
53116;BME280;39010;48.088;7.954;2022-07-24T01:46:59;98998.19;;;19.13;82.05
53116;BME280;39010;48.088;7.954;2022-07-24T01:49:25;99002.19;;;19.10;82.27
53116;BME280;39010;48.088;7.954;2022-07-24T01:51:52;98987.97;;;19.08;82.39
53116;BME280;39010;48.088;7.954;2022-07-24T01:54:18;98998.50;;;19.05;82.60
53116;BME280;39010;48.088;7.954;2022-07-24T01:56:45;98995.00;;;19.16;82.02
53116;BME280;39010;48.088;7.954;2022-07-24T01:59:12;98989.19;;;19.12;82.42
53116;BME280;39010;48.088;7.954;2022-07-24T02:01:39;98990.03;;;19.13;81.93
53116;BME280;39010;48.088;7.954;2022-07-24T02:04:06;98987.25;;;19.01;82.51
53116;BME280;39010;48.088;7.954;2022-07-24T02:06:33;98996.84;;;19.04;82.97
53116;BME280;39010;48.088;7.954;2022-07-24T02:08:59;98985.41;;;19.13;82.31
53116;BME280;39010;48.088;7.954;2022-07-24T02:25:59;98988.59;;;18.73;83.22
53116;BME280;39010;48.088;7.954;2022-07-24T02:28:25;98985.09;;;18.84;83.02
53116;BME280;39010;48.088;7.954;2022-07-24T02:30:52;98995.22;;;18.77;82.78
53116;BME280;39010;48.088;7.954;2022-07-24T02:33:18;98986.00;;;18.78;82.99
53116;BME280;39010;48.088;7.954;2022-07-24T02:35:45;98988.81;;;18.72;83.14
53116;BME280;39010;48.088;7.954;2022-07-24T02:38:11;98991.25;;;18.80;82.93
53116;BME280;39010;48.088;7.954;2022-07-24T02:40:38;98985.66;;;18.75;83.08
53116;BME280;39010;48.088;7.954;2022-07-24T02:43:04;98988.28;;;18.81;82.52
53116;BME280;39010;48.088;7.954;2022-07-24T02:45:31;98980.44;;;18.73;82.69
53116;BME280;39010;48.088;7.954;2022-07-24T02:47:58;98980.88;;;18.70;83.62
53116;BME280;39010;48.088;7.954;2022-07-24T02:50:30;98994.78;;;18.62;83.68
53116;BME280;39010;48.088;7.954;2022-07-24T02:52:57;98986.31;;;18.70;83.37
53116;BME280;39010;48.088;7.954;2022-07-24T02:55:24;99000.81;;;18.64;83.67
53116;BME280;39010;48.088;7.954;2022-07-24T02:57:50;99001.88;;;18.63;83.73
53116;BME280;39010;48.088;7.954;2022-07-24T03:00:17;99000.38;;;18.67;83.24
53116;BME280;39010;48.088;7.954;2022-07-24T03:02:44;98999.31;;;18.68;83.06
53116;BME280;39010;48.088;7.954;2022-07-24T03:05:11;99005.34;;;18.70;82.82
53116;BME280;39010;48.088;7.954;2022-07-24T03:07:37;99000.66;;;18.59;83.14
53116;BME280;39010;48.088;7.954;2022-07-24T03:10:05;98995.69;;;18.55;83.53
53116;BME280;39010;48.088;7.954;2022-07-24T03:12:32;99005.75;;;18.55;83.85
53116;BME280;39010;48.088;7.954;2022-07-24T03:14:59;99006.63;;;18.49;83.99
53116;BME280;39010;48.088;7.954;2022-07-24T03:17:25;98998.72;;;18.47;84.05
53116;BME280;39010;48.088;7.954;2022-07-24T03:19:52;98997.97;;;18.40;84.46
53116;BME280;39010;48.088;7.954;2022-07-24T03:22:19;99000.59;;;18.47;84.19
53116;BME280;39010;48.088;7.954;2022-07-24T03:24:45;98992.84;;;18.50;84.05
53116;BME280;39010;48.088;7.954;2022-07-24T03:27:11;98994.78;;;18.43;84.12
53116;BME280;39010;48.088;7.954;2022-07-24T03:29:38;98998.03;;;18.52;83.97
53116;BME280;39010;48.088;7.954;2022-07-24T03:32:05;99003.38;;;18.59;83.80
53116;BME280;39010;48.088;7.954;2022-07-24T03:34:31;98996.59;;;18.49;83.98
53116;BME280;39010;48.088;7.954;2022-07-24T03:36:58;99002.63;;;18.33;84.60
53116;BME280;39010;48.088;7.954;2022-07-24T03:39:25;98996.94;;;18.34;84.68
53116;BME280;39010;48.088;7.954;2022-07-24T03:41:52;98998.38;;;18.18;85.52
53116;BME280;39010;48.088;7.954;2022-07-24T03:44:18;98997.56;;;18.36;84.85
53116;BME280;39010;48.088;7.954;2022-07-24T03:46:45;98993.25;;;18.29;85.19
53116;BME280;39010;48.088;7.954;2022-07-24T03:49:11;99002.63;;;18.33;85.47
53116;BME280;39010;48.088;7.954;2022-07-24T03:51:38;99006.69;;;18.23;85.67
53116;BME280;39010;48.088;7.954;2022-07-24T03:54:05;99002.59;;;18.14;86.46
53116;BME280;39010;48.088;7.954;2022-07-24T03:56:32;99004.84;;;18.17;86.07
53116;BME280;39010;48.088;7.954;2022-07-24T03:58:58;99005.13;;;18.09;86.14
53116;BME280;39010;48.088;7.954;2022-07-24T04:01:25;99002.13;;;18.17;85.84
53116;BME280;39010;48.088;7.954;2022-07-24T04:03:52;99003.63;;;18.13;86.15
53116;BME280;39010;48.088;7.954;2022-07-24T04:06:18;99009.97;;;18.07;86.45
53116;BME280;39010;48.088;7.954;2022-07-24T04:08:45;99004.69;;;18.12;85.70
53116;BME280;39010;48.088;7.954;2022-07-24T04:11:13;99002.34;;;18.16;85.25
53116;BME280;39010;48.088;7.954;2022-07-24T04:13:39;99010.41;;;18.04;86.37
53116;BME280;39010;48.088;7.954;2022-07-24T04:16:09;99022.06;;;18.11;85.85
53116;BME280;39010;48.088;7.954;2022-07-24T04:18:35;99017.84;;;18.15;86.03
53116;BME280;39010;48.088;7.954;2022-07-24T04:21:02;99021.44;;;18.09;85.81
53116;BME280;39010;48.088;7.954;2022-07-24T04:23:29;99019.94;;;18.13;86.15
53116;BME280;39010;48.088;7.954;2022-07-24T04:25:55;99020.75;;;18.14;85.52
53116;BME280;39010;48.088;7.954;2022-07-24T04:28:21;99014.88;;;18.17;85.63
53116;BME280;39010;48.088;7.954;2022-07-24T04:30:48;99022.75;;;18.25;85.18
53116;BME280;39010;48.088;7.954;2022-07-24T04:33:14;99028.09;;;18.13;85.45
53116;BME280;39010;48.088;7.954;2022-07-24T04:35:41;99026.81;;;18.16;85.34
53116;BME280;39010;48.088;7.954;2022-07-24T04:38:07;99027.94;;;18.08;85.81
53116;BME280;39010;48.088;7.954;2022-07-24T04:40:34;99022.81;;;18.18;85.17
53116;BME280;39010;48.088;7.954;2022-07-24T04:43:01;99024.03;;;18.22;85.33
53116;BME280;39010;48.088;7.954;2022-07-24T04:45:27;99017.59;;;18.17;85.38
53116;BME280;39010;48.088;7.954;2022-07-24T04:48:01;99022.69;;;18.06;86.08
53116;BME280;39010;48.088;7.954;2022-07-24T04:50:27;99027.38;;;18.24;85.75
53116;BME280;39010;48.088;7.954;2022-07-24T04:52:54;99028.00;;;18.45;84.70
53116;BME280;39010;48.088;7.954;2022-07-24T04:55:21;99027.69;;;18.35;84.66
53116;BME280;39010;48.088;7.954;2022-07-24T04:57:47;99022.31;;;18.28;84.65
53116;BME280;39010;48.088;7.954;2022-07-24T05:00:14;99034.81;;;18.54;83.71
53116;BME280;39010;48.088;7.954;2022-07-24T05:02:41;99033.16;;;18.53;83.73
53116;BME280;39010;48.088;7.954;2022-07-24T05:05:07;99034.22;;;18.52;83.30
53116;BME280;39010;48.088;7.954;2022-07-24T05:07:34;99026.66;;;18.54;83.80
53116;BME280;39010;48.088;7.954;2022-07-24T05:10:00;99030.72;;;18.64;82.94
53116;BME280;39010;48.088;7.954;2022-07-24T05:12:27;99036.13;;;18.70;82.89
53116;BME280;39010;48.088;7.954;2022-07-24T05:14:53;99030.44;;;18.72;82.52
53116;BME280;39010;48.088;7.954;2022-07-24T05:17:20;99032.25;;;18.78;82.54
53116;BME280;39010;48.088;7.954;2022-07-24T05:19:46;99038.22;;;18.87;81.82
53116;BME280;39010;48.088;7.954;2022-07-24T05:22:13;99034.50;;;18.81;82.46
53116;BME280;39010;48.088;7.954;2022-07-24T05:24:39;99028.28;;;18.99;81.64
53116;BME280;39010;48.088;7.954;2022-07-24T05:27:06;99031.22;;;18.98;80.74
53116;BME280;39010;48.088;7.954;2022-07-24T05:29:38;99025.94;;;19.03;80.67
53116;BME280;39010;48.088;7.954;2022-07-24T05:32:07;99031.75;;;19.07;80.16
53116;BME280;39010;48.088;7.954;2022-07-24T05:34:34;99024.88;;;19.04;79.63
53116;BME280;39010;48.088;7.954;2022-07-24T05:37:06;99020.72;;;19.02;80.22
53116;BME280;39010;48.088;7.954;2022-07-24T05:39:32;99031.50;;;19.27;79.11
53116;BME280;39010;48.088;7.954;2022-07-24T05:41:59;99026.78;;;19.34;78.91
53116;BME280;39010;48.088;7.954;2022-07-24T05:44:25;99024.00;;;19.41;78.97
53116;BME280;39010;48.088;7.954;2022-07-24T05:46:52;99031.59;;;19.51;77.90
53116;BME280;39010;48.088;7.954;2022-07-24T05:49:18;99026.19;;;19.63;77.20
53116;BME280;39010;48.088;7.954;2022-07-24T05:51:45;99025.03;;;19.82;77.53
53116;BME280;39010;48.088;7.954;2022-07-24T05:54:11;99025.44;;;19.86;76.91
53116;BME280;39010;48.088;7.954;2022-07-24T05:56:39;99024.78;;;20.02;76.20
53116;BME280;39010;48.088;7.954;2022-07-24T05:59:06;99024.19;;;20.12;75.86
53116;BME280;39010;48.088;7.954;2022-07-24T06:01:33;99024.34;;;20.29;75.17
53116;BME280;39010;48.088;7.954;2022-07-24T06:04:00;99018.75;;;20.36;74.81
53116;BME280;39010;48.088;7.954;2022-07-24T06:06:26;99018.59;;;20.43;74.61
53116;BME280;39010;48.088;7.954;2022-07-24T06:08:53;99015.75;;;20.73;74.22
53116;BME280;39010;48.088;7.954;2022-07-24T06:11:19;99023.72;;;20.87;72.57
53116;BME280;39010;48.088;7.954;2022-07-24T06:13:47;99026.88;;;20.96;72.25
53116;BME280;39010;48.088;7.954;2022-07-24T06:16:15;99012.97;;;21.09;71.95
53116;BME280;39010;48.088;7.954;2022-07-24T06:18:43;99012.91;;;21.21;71.05
53116;BME280;39010;48.088;7.954;2022-07-24T06:21:10;99009.22;;;21.27;70.42
53116;BME280;39010;48.088;7.954;2022-07-24T06:23:36;99003.50;;;21.58;70.39
53116;BME280;39010;48.088;7.954;2022-07-24T06:26:03;99004.16;;;21.94;68.51
53116;BME280;39010;48.088;7.954;2022-07-24T06:28:29;99008.19;;;22.08;68.17
53116;BME280;39010;48.088;7.954;2022-07-24T06:30:56;99001.00;;;22.19;67.58
53116;BME280;39010;48.088;7.954;2022-07-24T06:33:25;99001.47;;;22.33;66.59
53116;BME280;39010;48.088;7.954;2022-07-24T06:35:51;99002.06;;;22.53;66.06
53116;BME280;39010;48.088;7.954;2022-07-24T06:38:18;99002.66;;;22.77;65.01
53116;BME280;39010;48.088;7.954;2022-07-24T06:40:45;98988.97;;;22.77;65.16
53116;BME280;39010;48.088;7.954;2022-07-24T06:43:11;98988.44;;;22.80;65.64
53116;BME280;39010;48.088;7.954;2022-07-24T06:45:38;98999.97;;;22.82;64.51
53116;BME280;39010;48.088;7.954;2022-07-24T06:48:05;98993.94;;;23.24;63.79
53116;BME280;39010;48.088;7.954;2022-07-24T06:50:31;98991.31;;;23.35;62.93
53116;BME280;39010;48.088;7.954;2022-07-24T06:52:58;98998.28;;;23.75;62.50
53116;BME280;39010;48.088;7.954;2022-07-24T06:55:24;98988.69;;;23.78;62.37
53116;BME280;39010;48.088;7.954;2022-07-24T06:57:51;98988.44;;;23.79;61.10
53116;BME280;39010;48.088;7.954;2022-07-24T07:00:17;98993.84;;;23.69;62.14
53116;BME280;39010;48.088;7.954;2022-07-24T07:02:44;98981.97;;;23.96;61.01
53116;BME280;39010;48.088;7.954;2022-07-24T07:05:12;98989.53;;;24.11;60.89
53116;BME280;39010;48.088;7.954;2022-07-24T07:07:39;98993.59;;;24.03;61.01
53116;BME280;39010;48.088;7.954;2022-07-24T07:10:07;98981.34;;;24.64;59.39
53116;BME280;39010;48.088;7.954;2022-07-24T07:12:33;98979.81;;;24.79;58.60
53116;BME280;39010;48.088;7.954;2022-07-24T07:15:06;98983.16;;;24.91;57.81
53116;BME280;39010;48.088;7.954;2022-07-24T07:17:33;98976.72;;;25.44;57.45
53116;BME280;39010;48.088;7.954;2022-07-24T07:19:59;98975.06;;;25.43;55.89
53116;BME280;39010;48.088;7.954;2022-07-24T07:22:26;98978.69;;;25.74;54.75
53116;BME280;39010;48.088;7.954;2022-07-24T07:24:52;98971.53;;;25.68;54.79
53116;BME280;39010;48.088;7.954;2022-07-24T07:27:19;98976.75;;;25.91;53.00
53116;BME280;39010;48.088;7.954;2022-07-24T07:29:45;98975.09;;;26.00;54.52
53116;BME280;39010;48.088;7.954;2022-07-24T07:32:12;98978.97;;;26.14;51.96
53116;BME280;39010;48.088;7.954;2022-07-24T07:34:39;98983.34;;;26.36;52.23
53116;BME280;39010;48.088;7.954;2022-07-24T07:37:05;98976.34;;;26.75;53.83
53116;BME280;39010;48.088;7.954;2022-07-24T07:39:32;98973.22;;;27.02;52.09
53116;BME280;39010;48.088;7.954;2022-07-24T07:41:58;98974.13;;;26.87;51.37
53116;BME280;39010;48.088;7.954;2022-07-24T07:44:25;98981.34;;;27.33;51.45
53116;BME280;39010;48.088;7.954;2022-07-24T07:46:51;98976.94;;;27.32;50.14
53116;BME280;39010;48.088;7.954;2022-07-24T07:49:19;98970.22;;;27.44;49.79
53116;BME280;39010;48.088;7.954;2022-07-24T07:51:45;98978.75;;;27.87;48.45
53116;BME280;39010;48.088;7.954;2022-07-24T07:54:14;98977.41;;;27.85;48.32
53116;BME280;39010;48.088;7.954;2022-07-24T07:56:41;98970.44;;;27.92;48.90
53116;BME280;39010;48.088;7.954;2022-07-24T07:59:07;98976.00;;;28.22;48.95
53116;BME280;39010;48.088;7.954;2022-07-24T08:01:35;98974.31;;;28.50;46.84
53116;BME280;39010;48.088;7.954;2022-07-24T08:04:02;98974.66;;;28.92;46.06
53116;BME280;39010;48.088;7.954;2022-07-24T08:06:29;98972.69;;;28.98;45.78
53116;BME280;39010;48.088;7.954;2022-07-24T08:08:56;98964.84;;;29.24;45.34
53116;BME280;39010;48.088;7.954;2022-07-24T08:11:23;98980.50;;;28.91;46.56
53116;BME280;39010;48.088;7.954;2022-07-24T08:13:49;98964.44;;;28.93;44.66
53116;BME280;39010;48.088;7.954;2022-07-24T08:16:16;98968.06;;;29.13;45.23
53116;BME280;39010;48.088;7.954;2022-07-24T08:18:43;98961.75;;;28.88;44.67
53116;BME280;39010;48.088;7.954;2022-07-24T08:21:16;98965.97;;;29.43;44.48
53116;BME280;39010;48.088;7.954;2022-07-24T08:23:45;98969.53;;;29.24;44.46
53116;BME280;39010;48.088;7.954;2022-07-24T08:26:11;98952.53;;;29.88;44.03
53116;BME280;39010;48.088;7.954;2022-07-24T08:28:38;98960.69;;;29.98;43.97
53116;BME280;39010;48.088;7.954;2022-07-24T08:31:05;98950.69;;;30.31;42.81
53116;BME280;39010;48.088;7.954;2022-07-24T08:33:32;98955.97;;;30.60;43.00
53116;BME280;39010;48.088;7.954;2022-07-24T08:35:58;98957.31;;;30.02;42.25
53116;BME280;39010;48.088;7.954;2022-07-24T08:38:25;98967.84;;;28.60;44.69
53116;BME280;39010;48.088;7.954;2022-07-24T08:40:51;98960.44;;;29.04;44.46
53116;BME280;39010;48.088;7.954;2022-07-24T08:43:18;98961.31;;;29.19;43.00
53116;BME280;39010;48.088;7.954;2022-07-24T08:45:44;98961.25;;;29.24;43.91
53116;BME280;39010;48.088;7.954;2022-07-24T08:48:11;98954.91;;;29.04;44.73
53116;BME280;39010;48.088;7.954;2022-07-24T08:50:41;98955.19;;;29.22;43.63
53116;BME280;39010;48.088;7.954;2022-07-24T08:53:08;98954.91;;;29.23;45.09
53116;BME280;39010;48.088;7.954;2022-07-24T08:55:35;98954.06;;;29.61;43.17
53116;BME280;39010;48.088;7.954;2022-07-24T08:58:02;98943.69;;;29.53;42.90
53116;BME280;39010;48.088;7.954;2022-07-24T09:00:30;98945.41;;;29.49;42.93
53116;BME280;39010;48.088;7.954;2022-07-24T09:02:57;98946.16;;;30.07;42.66
53116;BME280;39010;48.088;7.954;2022-07-24T09:05:24;98941.06;;;30.42;42.26
53116;BME280;39010;48.088;7.954;2022-07-24T09:08:06;98948.41;;;30.05;41.82
53116;BME280;39010;48.088;7.954;2022-07-24T09:10:32;98939.13;;;29.95;42.49
53116;BME280;39010;48.088;7.954;2022-07-24T09:13:13;98942.25;;;29.75;43.39
53116;BME280;39010;48.088;7.954;2022-07-24T09:15:48;98946.63;;;29.62;43.07
53116;BME280;39010;48.088;7.954;2022-07-24T09:18:30;98941.56;;;30.44;42.01
53116;BME280;39010;48.088;7.954;2022-07-24T09:21:12;98943.06;;;30.08;42.03
53116;BME280;39010;48.088;7.954;2022-07-24T09:23:40;98945.34;;;29.87;42.39
53116;BME280;39010;48.088;7.954;2022-07-24T09:26:07;98935.28;;;30.10;42.72
53116;BME280;39010;48.088;7.954;2022-07-24T09:29:00;98932.03;;;30.22;42.56
53116;BME280;39010;48.088;7.954;2022-07-24T09:31:27;98929.34;;;30.17;42.49
53116;BME280;39010;48.088;7.954;2022-07-24T09:33:59;98928.81;;;30.01;42.02
53116;BME280;39010;48.088;7.954;2022-07-24T09:36:34;98927.19;;;30.14;42.18
53116;BME280;39010;48.088;7.954;2022-07-24T09:39:01;98925.59;;;30.69;40.38
53116;BME280;39010;48.088;7.954;2022-07-24T09:41:29;98924.75;;;30.54;40.23
53116;BME280;39010;48.088;7.954;2022-07-24T09:44:00;98930.31;;;29.93;40.71
53116;BME280;39010;48.088;7.954;2022-07-24T09:46:46;98919.28;;;30.07;40.03
53116;BME280;39010;48.088;7.954;2022-07-24T09:49:18;98910.59;;;30.14;40.43
53116;BME280;39010;48.088;7.954;2022-07-24T09:54:36;98906.19;;;30.27;40.80
53116;BME280;39010;48.088;7.954;2022-07-24T09:57:28;98912.84;;;30.82;40.75
53116;BME280;39010;48.088;7.954;2022-07-24T09:59:59;98906.94;;;30.61;40.30
53116;BME280;39010;48.088;7.954;2022-07-24T10:02:28;98901.84;;;30.91;38.47
53116;BME280;39010;48.088;7.954;2022-07-24T10:04:57;98909.69;;;30.61;38.83
53116;BME280;39010;48.088;7.954;2022-07-24T10:07:26;98908.13;;;30.54;37.96
53116;BME280;39010;48.088;7.954;2022-07-24T10:09:55;98917.06;;;30.51;37.82
53116;BME280;39010;48.088;7.954;2022-07-24T10:12:25;98907.59;;;30.94;39.43
53116;BME280;39010;48.088;7.954;2022-07-24T10:14:54;98903.84;;;30.76;37.98
53116;BME280;39010;48.088;7.954;2022-07-24T10:17:33;98899.75;;;30.60;38.20
53116;BME280;39010;48.088;7.954;2022-07-24T10:20:03;98907.84;;;31.21;37.22
53116;BME280;39010;48.088;7.954;2022-07-24T10:23:02;98898.28;;;30.76;37.04
53116;BME280;39010;48.088;7.954;2022-07-24T10:25:38;98894.63;;;30.67;37.87
53116;BME280;39010;48.088;7.954;2022-07-24T10:28:11;98890.88;;;30.85;37.34
53116;BME280;39010;48.088;7.954;2022-07-24T10:30:41;98899.47;;;31.35;37.12
53116;BME280;39010;48.088;7.954;2022-07-24T10:33:15;98900.63;;;30.55;37.34
53116;BME280;39010;48.088;7.954;2022-07-24T10:35:42;98893.56;;;30.77;37.10
53116;BME280;39010;48.088;7.954;2022-07-24T10:38:22;98895.63;;;31.22;36.15
53116;BME280;39010;48.088;7.954;2022-07-24T10:40:55;98893.97;;;31.21;36.16
53116;BME280;39010;48.088;7.954;2022-07-24T10:43:28;98885.75;;;32.15;36.05
53116;BME280;39010;48.088;7.954;2022-07-24T10:53:24;98879.28;;;30.83;34.89
53116;BME280;39010;48.088;7.954;2022-07-24T10:55:51;98888.84;;;30.77;34.50
53116;BME280;39010;48.088;7.954;2022-07-24T10:58:18;98878.06;;;30.76;35.10
53116;BME280;39010;48.088;7.954;2022-07-24T11:00:49;98881.78;;;30.43;35.17
53116;BME280;39010;48.088;7.954;2022-07-24T11:03:25;98874.28;;;31.08;35.82
53116;BME280;39010;48.088;7.954;2022-07-24T11:06:03;98870.78;;;31.39;35.31
53116;BME280;39010;48.088;7.954;2022-07-24T11:08:48;98870.34;;;31.23;35.54
53116;BME280;39010;48.088;7.954;2022-07-24T11:11:17;98864.56;;;31.34;35.92
53116;BME280;39010;48.088;7.954;2022-07-24T11:13:52;98862.44;;;32.25;35.87
53116;BME280;39010;48.088;7.954;2022-07-24T11:16:21;98857.22;;;32.24;34.78
53116;BME280;39010;48.088;7.954;2022-07-24T11:21:39;98856.16;;;31.48;34.19
53116;BME280;39010;48.088;7.954;2022-07-24T11:29:19;98842.03;;;31.35;34.80
53116;BME280;39010;48.088;7.954;2022-07-24T11:31:50;98847.06;;;30.88;35.77
53116;BME280;39010;48.088;7.954;2022-07-24T11:34:17;98848.81;;;30.69;36.36
53116;BME280;39010;48.088;7.954;2022-07-24T11:36:46;98835.06;;;31.01;35.54
53116;BME280;39010;48.088;7.954;2022-07-24T11:39:15;98838.03;;;30.82;36.86
53116;BME280;39010;48.088;7.954;2022-07-24T11:41:53;98836.09;;;30.68;35.27
53116;BME280;39010;48.088;7.954;2022-07-24T11:44:30;98832.50;;;30.54;36.25
53116;BME280;39010;48.088;7.954;2022-07-24T11:47:00;98834.41;;;30.17;36.83
53116;BME280;39010;48.088;7.954;2022-07-24T11:49:39;98821.66;;;30.57;36.71
53116;BME280;39010;48.088;7.954;2022-07-24T11:52:05;98821.94;;;31.07;36.20
53116;BME280;39010;48.088;7.954;2022-07-24T11:54:32;98820.91;;;31.03;36.26
53116;BME280;39010;48.088;7.954;2022-07-24T11:56:58;98817.56;;;30.69;35.51
53116;BME280;39010;48.088;7.954;2022-07-24T11:59:28;98812.00;;;30.55;35.72
53116;BME280;39010;48.088;7.954;2022-07-24T12:02:07;98802.09;;;30.40;36.34
53116;BME280;39010;48.088;7.954;2022-07-24T12:04:35;98821.41;;;30.82;36.23
53116;BME280;39010;48.088;7.954;2022-07-24T12:07:05;98812.84;;;30.92;36.05
53116;BME280;39010;48.088;7.954;2022-07-24T12:09:32;98813.41;;;30.80;35.77
53116;BME280;39010;48.088;7.954;2022-07-24T12:11:59;98799.69;;;30.75;35.66
53116;BME280;39010;48.088;7.954;2022-07-24T12:14:25;98796.78;;;30.80;35.31
53116;BME280;39010;48.088;7.954;2022-07-24T12:16:55;98800.91;;;30.55;36.67
53116;BME280;39010;48.088;7.954;2022-07-24T12:19:24;98803.75;;;30.78;35.97
53116;BME280;39010;48.088;7.954;2022-07-24T12:21:52;98797.59;;;30.81;36.43
53116;BME280;39010;48.088;7.954;2022-07-24T12:24:20;98793.03;;;30.62;35.87
53116;BME280;39010;48.088;7.954;2022-07-24T12:26:58;98791.53;;;30.42;36.24
53116;BME280;39010;48.088;7.954;2022-07-24T12:29:26;98782.94;;;30.80;36.12
53116;BME280;39010;48.088;7.954;2022-07-24T12:32:16;98778.44;;;30.70;36.29
53116;BME280;39010;48.088;7.954;2022-07-24T12:34:47;98777.31;;;30.94;35.83
53116;BME280;39010;48.088;7.954;2022-07-24T12:37:37;98767.13;;;31.26;35.77
53116;BME280;39010;48.088;7.954;2022-07-24T12:40:04;98772.44;;;31.00;35.67
53116;BME280;39010;48.088;7.954;2022-07-24T12:42:31;98776.31;;;30.53;36.30
53116;BME280;39010;48.088;7.954;2022-07-24T12:45:08;98765.28;;;30.76;35.68
53116;BME280;39010;48.088;7.954;2022-07-24T12:50:37;98759.81;;;31.30;35.66
53116;BME280;39010;48.088;7.954;2022-07-24T12:53:22;98758.97;;;31.30;34.51
53116;BME280;39010;48.088;7.954;2022-07-24T12:56:14;98753.13;;;31.09;35.77
53116;BME280;39010;48.088;7.954;2022-07-24T12:59:01;98747.84;;;30.76;35.92
53116;BME280;39010;48.088;7.954;2022-07-24T13:01:56;98743.94;;;31.54;35.33
53116;BME280;39010;48.088;7.954;2022-07-24T13:04:25;98739.72;;;32.06;34.54
53116;BME280;39010;48.088;7.954;2022-07-24T13:06:54;98740.38;;;31.62;34.89
53116;BME280;39010;48.088;7.954;2022-07-24T13:09:21;98744.59;;;31.05;35.00
53116;BME280;39010;48.088;7.954;2022-07-24T13:11:50;98739.31;;;30.95;36.04
53116;BME280;39010;48.088;7.954;2022-07-24T13:14:20;98727.09;;;30.96;35.39
53116;BME280;39010;48.088;7.954;2022-07-24T13:16:48;98730.97;;;31.40;36.35
53116;BME280;39010;48.088;7.954;2022-07-24T13:19:16;98726.59;;;30.94;35.92
53116;BME280;39010;48.088;7.954;2022-07-24T13:21:44;98728.03;;;30.82;35.95
53116;BME280;39010;48.088;7.954;2022-07-24T13:24:12;98711.25;;;30.65;37.06
53116;BME280;39010;48.088;7.954;2022-07-24T13:26:41;98707.19;;;30.94;35.83
53116;BME280;39010;48.088;7.954;2022-07-24T13:29:08;98710.38;;;30.78;36.05
53116;BME280;39010;48.088;7.954;2022-07-24T13:31:35;98707.78;;;31.05;35.55
53116;BME280;39010;48.088;7.954;2022-07-24T13:34:02;98700.44;;;30.40;36.75
53116;BME280;39010;48.088;7.954;2022-07-24T13:36:29;98701.72;;;31.03;35.69
53116;BME280;39010;48.088;7.954;2022-07-24T13:38:55;98695.19;;;30.98;35.49
53116;BME280;39010;48.088;7.954;2022-07-24T13:41:23;98695.97;;;31.22;35.49
53116;BME280;39010;48.088;7.954;2022-07-24T13:43:50;98695.34;;;31.25;35.55